createdAt,value
2023-01-09T00:01:15.851Z,7.41
2023-01-09T00:03:48.279Z,7.41
2023-01-09T00:06:14.886Z,7.39
2023-01-09T00:08:43.415Z,7.36
2023-01-09T00:11:11.517Z,7.34
2023-01-09T00:13:39.932Z,7.32
2023-01-09T00:16:10.515Z,7.27
2023-01-09T00:18:38.739Z,7.24
2023-01-09T00:21:09.336Z,7.21
2023-01-09T00:23:39.359Z,7.16
2023-01-09T00:29:03.292Z,7.07
2023-01-09T00:31:30.070Z,7.07
2023-01-09T00:36:55.360Z,7.06
2023-01-09T00:39:24.245Z,7.02
2023-01-09T00:42:19.512Z,6.99
2023-01-09T00:44:55.958Z,6.99
2023-01-09T00:47:33.238Z,6.96
2023-01-09T00:50:05.576Z,6.93
2023-01-09T00:53:25.236Z,6.87
2023-01-09T00:58:29.487Z,6.82
2023-01-09T01:00:59.719Z,6.80
2023-01-09T01:06:34.252Z,6.74
2023-01-09T01:09:38.393Z,6.72
2023-01-09T01:15:13.497Z,6.61
2023-01-09T01:18:05.891Z,6.54
2023-01-09T01:21:52.383Z,6.48
2023-01-09T01:23:23.151Z,6.47
2023-01-09T01:25:55.350Z,6.48
2023-01-09T01:28:22.137Z,6.41
2023-01-09T01:31:21.824Z,6.37
2023-01-09T01:34:13.012Z,6.35
2023-01-09T01:37:12.147Z,6.31
2023-01-09T01:40:06.728Z,6.29
2023-01-09T01:43:20.095Z,6.25
2023-01-09T01:45:47.701Z,6.19
2023-01-09T01:49:03.771Z,6.16
2023-01-09T01:54:36.949Z,6.09
2023-01-09T01:57:52.568Z,6.05
2023-01-09T01:59:59.028Z,6.03
2023-01-09T02:11:31.908Z,5.90
2023-01-09T02:14:22.972Z,5.91
2023-01-09T02:17:07.468Z,5.86
2023-01-09T02:26:43.667Z,5.90
2023-01-09T02:29:56.695Z,5.89
2023-01-09T02:32:44.117Z,5.94
2023-01-09T02:35:14.018Z,5.97
2023-01-09T02:38:50.139Z,5.98
2023-01-09T02:41:20.644Z,5.99
2023-01-09T02:44:15.231Z,6.01
2023-01-09T02:46:43.239Z,6.01
2023-01-09T02:50:50.631Z,6.00
2023-01-09T02:55:54.882Z,5.96
2023-01-09T02:58:49.180Z,5.95
2023-01-09T03:01:58.601Z,5.94
2023-01-09T03:08:09.840Z,5.93
2023-01-09T03:16:19.221Z,5.78
2023-01-09T03:19:58.539Z,5.86
2023-01-09T03:23:42.270Z,5.85
2023-01-09T03:26:04.347Z,5.86
2023-01-09T03:29:01.488Z,5.87
2023-01-09T03:32:00.185Z,5.86
2023-01-09T03:34:51.956Z,5.84
2023-01-09T03:38:31.863Z,5.86
2023-01-09T03:50:57.049Z,5.79
2023-01-09T03:59:30.353Z,5.67
2023-01-09T04:08:45.122Z,5.61
2023-01-09T04:14:38.973Z,5.60
2023-01-09T04:16:38.495Z,5.62
2023-01-09T04:18:16.238Z,5.57
2023-01-09T04:21:07.359Z,5.50
2023-01-09T04:28:44.097Z,5.43
2023-01-09T04:39:31.787Z,5.50
2023-01-09T04:39:52.886Z,5.43
2023-01-09T04:41:57.654Z,5.51
2023-01-09T04:43:18.888Z,5.48
2023-01-09T05:06:48.897Z,5.70
2023-01-09T05:12:25.384Z,5.75
2023-01-09T05:27:03.417Z,5.90
2023-01-09T05:44:30.933Z,5.96
2023-01-09T05:51:05.595Z,5.97
2023-01-09T05:54:30.093Z,5.99
2023-01-09T06:03:43.718Z,6.01
2023-01-09T06:14:28.754Z,6.13
2023-01-09T06:18:29.739Z,6.15
2023-01-09T06:20:58.953Z,6.13
2023-01-09T06:23:25.726Z,6.13
2023-01-09T06:25:54.943Z,6.14
2023-01-09T06:28:21.484Z,6.16
2023-01-09T06:30:52.133Z,6.18
2023-01-09T06:33:19.642Z,6.18
2023-01-09T06:35:46.418Z,6.22
2023-01-09T06:38:13.046Z,6.20
2023-01-09T06:40:39.705Z,6.22
2023-01-09T06:43:06.480Z,6.23
2023-01-09T06:45:33.095Z,6.24
2023-01-09T06:47:59.860Z,6.28
2023-01-09T06:50:26.426Z,6.27
2023-01-09T06:52:53.037Z,6.28
2023-01-09T06:55:19.803Z,6.29
2023-01-09T06:57:46.498Z,6.32
2023-01-09T07:00:13.565Z,6.34
2023-01-09T07:02:40.183Z,6.35
2023-01-09T07:05:08.687Z,6.37
2023-01-09T07:07:35.382Z,6.35
2023-01-09T07:10:02.126Z,6.35
2023-01-09T07:12:28.925Z,6.35
2023-01-09T07:14:57.597Z,6.38
2023-01-09T07:17:24.550Z,6.39
2023-01-09T07:19:51.247Z,6.40
2023-01-09T07:22:18.309Z,6.42
2023-01-09T07:24:45.059Z,6.43
2023-01-09T07:27:12.041Z,6.44
2023-01-09T07:29:38.776Z,6.43
2023-01-09T07:32:05.496Z,6.44
2023-01-09T07:34:32.246Z,6.46
2023-01-09T07:36:58.877Z,6.46
2023-01-09T07:39:25.485Z,6.46
2023-01-09T07:41:52.181Z,6.48
2023-01-09T07:44:18.855Z,6.49
2023-01-09T07:46:45.535Z,6.49
2023-01-09T07:49:12.108Z,6.49
2023-01-09T07:51:42.989Z,6.51
2023-01-09T07:54:11.170Z,6.52
2023-01-09T07:56:37.771Z,6.49
2023-01-09T08:02:30.217Z,6.50
2023-01-09T08:04:57.108Z,6.50
2023-01-09T08:07:23.722Z,6.52
2023-01-09T08:13:38.085Z,6.56
2023-01-09T08:16:06.179Z,6.57
2023-01-09T08:18:32.727Z,6.58
2023-01-09T08:20:59.431Z,6.56
2023-01-09T08:23:27.105Z,6.57
2023-01-09T08:25:53.836Z,6.56
2023-01-09T08:28:20.500Z,6.57
2023-01-09T08:30:47.744Z,6.57
2023-01-09T08:33:16.143Z,6.56
2023-01-09T08:35:44.298Z,6.54
2023-01-09T08:38:11.393Z,6.54
2023-01-09T08:40:38.483Z,6.55
2023-01-09T08:43:24.710Z,6.53
2023-01-09T08:46:12.707Z,6.52
2023-01-09T08:48:39.428Z,6.54
2023-01-09T08:54:12.995Z,6.60
2023-01-09T08:56:41.178Z,6.62
2023-01-09T08:59:07.931Z,6.64
2023-01-09T09:01:34.678Z,6.68
2023-01-09T09:04:05.381Z,6.67
2023-01-09T09:06:35.923Z,6.66
2023-01-09T09:09:03.886Z,6.67
2023-01-09T09:11:31.137Z,6.69
2023-01-09T09:13:58.166Z,6.70
2023-01-09T09:16:26.424Z,6.72
2023-01-09T09:22:29.596Z,6.76
2023-01-09T09:25:44.825Z,6.79
2023-01-09T09:28:37.494Z,6.81
2023-01-09T09:31:10.252Z,6.83
2023-01-09T09:33:37.160Z,6.86
2023-01-09T09:36:14.169Z,6.88
2023-01-09T09:42:34.439Z,6.95
2023-01-09T09:45:25.909Z,6.98
2023-01-09T09:48:22.926Z,6.99
2023-01-09T09:51:22.740Z,6.98
2023-01-09T10:01:20.182Z,6.92
2023-01-09T10:04:16.691Z,6.90
2023-01-09T10:06:48.669Z,6.88
2023-01-09T10:12:28.941Z,6.88
2023-01-09T10:14:59.762Z,6.90
2023-01-09T10:17:51.757Z,6.94
2023-01-09T10:20:42.023Z,6.99
2023-01-09T10:23:22.124Z,7.03
2023-01-09T10:25:55.886Z,7.09
2023-01-09T10:28:59.008Z,7.16
2023-01-09T10:31:40.681Z,7.26
2023-01-09T10:34:14.673Z,7.32
2023-01-09T10:36:42.815Z,7.39
2023-01-09T10:39:18.553Z,7.45
2023-01-09T10:41:55.877Z,7.50
2023-01-09T10:44:37.305Z,7.53
2023-01-09T10:47:16.762Z,7.53
2023-01-09T10:49:45.075Z,7.52
2023-01-09T10:52:18.128Z,7.55
2023-01-09T10:54:57.091Z,7.54
2023-01-09T10:57:40.362Z,7.54
2023-01-09T11:00:14.094Z,7.56
2023-01-09T11:02:40.879Z,7.59
2023-01-09T11:05:13.922Z,7.58
2023-01-09T11:07:45.850Z,7.60
2023-01-09T11:10:17.640Z,7.67
2023-01-09T11:12:44.299Z,7.71
2023-01-09T11:16:00.473Z,7.78
2023-01-09T11:18:30.609Z,7.82
2023-01-09T11:21:14.743Z,7.82
2023-01-09T11:26:35.024Z,7.87
2023-01-09T11:29:35.354Z,7.86
2023-01-09T11:32:02.178Z,7.85
2023-01-09T11:34:33.024Z,7.86
2023-01-09T11:37:14.866Z,7.92
2023-01-09T11:39:48.172Z,8.03
2023-01-09T11:42:44.692Z,8.09
2023-01-09T11:45:17.593Z,8.10
2023-01-09T11:47:45.250Z,8.10
2023-01-09T11:50:21.164Z,8.11
2023-01-09T11:53:12.697Z,8.16
2023-01-09T11:55:42.853Z,8.22
2023-01-09T11:58:15.066Z,8.22
2023-01-09T12:01:07.156Z,8.19
2023-01-09T12:06:53.966Z,8.15
2023-01-09T12:09:55.764Z,8.07
2023-01-09T12:12:44.908Z,8.03
2023-01-09T12:15:25.009Z,8.01
2023-01-09T12:18:09.665Z,8.00
2023-01-09T12:21:02.570Z,7.93
2023-01-09T12:23:46.585Z,7.93
2023-01-09T12:26:23.344Z,7.89
2023-01-09T12:29:07.444Z,7.85
2023-01-09T12:35:22.999Z,7.65
2023-01-09T12:38:14.209Z,7.54
2023-01-09T12:41:08.352Z,7.48
2023-01-09T12:44:01.372Z,7.53
2023-01-09T12:46:42.147Z,7.59
2023-01-09T12:49:28.817Z,7.64
2023-01-09T12:52:01.706Z,7.67
2023-01-09T12:54:34.850Z,7.69
2023-01-09T12:57:07.392Z,7.74
2023-01-09T12:59:41.770Z,7.78
2023-01-09T13:02:09.324Z,7.79
2023-01-09T13:04:44.274Z,7.81
2023-01-09T13:07:20.505Z,7.79
2023-01-09T13:09:56.244Z,7.80
2023-01-09T13:12:25.194Z,7.83
2023-01-09T13:15:03.537Z,7.83
2023-01-09T13:30:51.515Z,7.95
2023-01-09T13:33:25.001Z,7.94
2023-01-09T13:35:54.999Z,7.95
2023-01-09T13:38:25.877Z,7.95
2023-01-09T13:44:04.491Z,8.00
2023-01-09T13:46:43.509Z,8.03
2023-01-09T13:49:29.700Z,8.04
2023-01-09T13:52:00.375Z,8.04
2023-01-09T13:54:48.839Z,8.02
2023-01-09T13:57:26.716Z,8.02
2023-01-09T13:59:54.539Z,7.99
2023-01-09T14:02:36.899Z,7.97
2023-01-09T14:05:12.345Z,7.95
2023-01-09T14:08:11.961Z,7.93
2023-01-09T14:10:48.571Z,7.95
2023-01-09T14:13:18.723Z,7.95
2023-01-09T14:15:47.238Z,7.94
2023-01-09T14:18:22.349Z,7.93
2023-01-09T14:20:58.404Z,7.92
2023-01-09T14:23:50.254Z,7.89
2023-01-09T14:26:23.402Z,7.85
2023-01-09T14:28:50.691Z,7.82
2023-01-09T14:31:33.125Z,7.82
2023-01-09T14:34:31.061Z,7.82
2023-01-09T14:37:01.719Z,7.83
2023-01-09T14:39:32.107Z,7.87
2023-01-09T14:42:15.824Z,7.89
2023-01-09T14:44:50.840Z,7.89
2023-01-09T14:47:38.514Z,7.90
2023-01-09T14:50:19.339Z,7.94
2023-01-09T14:52:49.926Z,7.97
2023-01-09T14:55:25.986Z,7.98
2023-01-09T14:57:55.129Z,7.96
2023-01-09T15:00:23.228Z,7.92
2023-01-09T15:02:52.982Z,7.90
2023-01-09T15:05:25.138Z,7.88
2023-01-09T15:07:56.169Z,7.83
2023-01-09T15:10:28.226Z,7.80
2023-01-09T15:12:57.426Z,7.76
2023-01-09T15:15:25.033Z,7.75
2023-01-09T15:18:10.901Z,7.72
2023-01-09T15:20:37.611Z,7.69
2023-01-09T15:23:05.512Z,7.64
2023-01-09T15:25:40.646Z,7.60
2023-01-09T15:28:26.963Z,7.57
2023-01-09T15:31:07.439Z,7.53
2023-01-09T15:33:35.475Z,7.52
2023-01-09T15:36:07.567Z,7.49
2023-01-09T15:38:36.184Z,7.46
2023-01-09T15:41:12.099Z,7.45
2023-01-09T15:43:43.255Z,7.40
2023-01-09T15:46:14.795Z,7.38
2023-01-09T15:48:41.856Z,7.38
2023-01-09T15:51:13.384Z,7.38
2023-01-09T15:53:41.604Z,7.42
2023-01-09T15:56:12.232Z,7.40
2023-01-09T15:58:40.882Z,7.41
2023-01-09T16:01:31.496Z,7.41
2023-01-09T16:04:10.176Z,7.44
2023-01-09T16:06:47.149Z,7.45
2023-01-09T16:09:21.741Z,7.46
2023-01-09T16:11:53.192Z,7.47
2023-01-09T16:14:24.972Z,7.46
2023-01-09T16:16:52.930Z,7.47
2023-01-09T16:19:51.824Z,7.46
2023-01-09T16:22:27.636Z,7.46
2023-01-09T16:24:57.706Z,7.47
2023-01-09T16:27:32.115Z,7.46
2023-01-09T16:30:03.290Z,7.48
2023-01-09T16:32:31.638Z,7.45
2023-01-09T16:35:01.004Z,7.45
2023-01-09T16:37:28.171Z,7.43
2023-01-09T16:40:18.694Z,7.39
2023-01-09T16:43:02.129Z,7.39
2023-01-09T16:45:40.805Z,7.34
2023-01-09T16:48:14.340Z,7.31
2023-01-09T16:50:42.413Z,7.28
2023-01-09T16:53:20.515Z,7.26
2023-01-09T16:55:47.234Z,7.26
2023-01-09T16:58:18.848Z,7.28
2023-01-09T17:00:45.544Z,7.27
2023-01-09T17:03:14.482Z,7.26
2023-01-09T17:05:46.081Z,7.25
2023-01-09T17:08:21.460Z,7.25
2023-01-09T17:10:48.690Z,7.22
2023-01-09T17:13:15.204Z,7.19
2023-01-09T17:15:41.862Z,7.13
2023-01-09T17:18:18.487Z,7.10
2023-01-09T17:20:48.128Z,7.11
2023-01-09T17:23:14.920Z,7.11
2023-01-09T17:26:01.624Z,7.06
2023-01-09T17:28:36.183Z,7.03
2023-01-09T17:31:07.496Z,7.03
2023-01-09T17:33:35.791Z,7.02
2023-01-09T17:36:06.356Z,6.98
2023-01-09T17:38:32.865Z,7.02
2023-01-09T17:41:00.447Z,7.03
2023-01-09T17:43:27.154Z,7.01
2023-01-09T17:45:54.797Z,7.02
2023-01-09T17:48:22.284Z,7.03
2023-01-09T17:50:49.572Z,7.05
2023-01-09T17:53:19.044Z,7.07
2023-01-09T17:55:46.667Z,7.08
2023-01-09T17:58:26.794Z,7.07
2023-01-09T18:00:54.531Z,7.06
2023-01-09T18:03:23.168Z,7.05
2023-01-09T18:05:50.096Z,7.06
2023-01-09T18:08:16.625Z,7.07
2023-01-09T18:10:45.454Z,7.04
2023-01-09T18:13:12.055Z,7.06
2023-01-09T18:15:43.630Z,7.06
2023-01-09T18:18:11.422Z,7.08
2023-01-09T18:20:41.548Z,7.05
2023-01-09T18:23:09.633Z,7.05
2023-01-09T18:25:39.373Z,7.04
2023-01-09T18:28:06.520Z,7.04
2023-01-09T18:30:33.091Z,7.04
2023-01-09T18:32:59.624Z,7.01
2023-01-09T18:35:26.100Z,7.01
2023-01-09T18:37:53.595Z,6.99
2023-01-09T18:40:20.113Z,6.99
2023-01-09T18:42:48.913Z,7.00
2023-01-09T18:45:15.563Z,7.02
2023-01-09T18:47:42.306Z,7.05
2023-01-09T18:50:09.762Z,7.06
2023-01-09T18:52:36.266Z,7.05
2023-01-09T18:55:04.142Z,7.04
2023-01-09T18:57:31.684Z,7.08
2023-01-09T18:59:58.250Z,7.06
2023-01-09T19:02:26.000Z,7.05
2023-01-09T19:04:53.334Z,7.03
2023-01-09T19:07:19.864Z,7.04
2023-01-09T19:09:46.662Z,6.99
2023-01-09T19:12:13.427Z,6.97
2023-01-09T19:14:40.136Z,6.96
2023-01-09T19:17:07.855Z,6.91
2023-01-09T19:19:34.795Z,6.91
2023-01-09T19:22:01.500Z,6.90
2023-01-09T19:24:28.205Z,6.88
2023-01-09T19:26:54.838Z,6.86
2023-01-09T19:29:21.478Z,6.84
2023-01-09T19:31:48.842Z,6.82
2023-01-09T19:34:16.161Z,6.80
2023-01-09T19:36:44.740Z,6.79
2023-01-09T19:39:11.682Z,6.78
2023-01-09T19:41:38.448Z,6.78
2023-01-09T19:44:05.337Z,6.79
2023-01-09T19:46:33.811Z,6.79
2023-01-09T19:49:04.696Z,6.76
2023-01-09T19:51:33.256Z,6.74
2023-01-09T19:56:29.798Z,6.73
2023-01-09T19:59:02.882Z,6.68
2023-01-09T20:01:32.487Z,6.63
2023-01-09T20:04:04.837Z,6.61
2023-01-09T20:06:31.947Z,6.60
2023-01-09T20:09:01.490Z,6.61
2023-01-09T20:11:30.523Z,6.60
2023-01-09T20:13:57.320Z,6.59
2023-01-09T20:16:30.604Z,6.60
2023-01-09T20:19:00.165Z,6.57
2023-01-09T20:21:28.325Z,6.57
2023-01-09T20:23:59.179Z,6.53
2023-01-09T20:26:26.431Z,6.51
2023-01-09T20:28:55.413Z,6.51
2023-01-09T20:31:24.219Z,6.50
2023-01-09T20:33:51.352Z,6.48
2023-01-09T20:36:19.517Z,6.44
2023-01-09T20:38:50.006Z,6.47
2023-01-09T20:41:23.606Z,6.51
2023-01-09T20:43:52.130Z,6.52
2023-01-09T20:46:22.275Z,6.52
2023-01-09T20:48:49.589Z,6.54
2023-01-09T20:51:16.695Z,6.53
2023-01-09T20:53:55.634Z,6.54
2023-01-09T20:56:25.567Z,6.51
2023-01-09T20:58:53.037Z,6.50
2023-01-09T21:01:20.259Z,6.46
2023-01-09T21:03:47.013Z,6.42
2023-01-09T21:06:16.112Z,6.41
2023-01-09T21:08:46.042Z,6.38
2023-01-09T21:11:14.170Z,6.35
2023-01-09T21:13:41.388Z,6.33
2023-01-09T21:16:14.677Z,6.33
2023-01-09T21:18:43.339Z,6.34
2023-01-09T21:21:14.411Z,6.34
2023-01-09T21:23:46.832Z,6.35
2023-01-09T21:26:15.280Z,6.34
2023-01-09T21:28:49.214Z,6.35
2023-01-09T21:31:19.553Z,6.33
2023-01-09T21:33:47.517Z,6.34
2023-01-09T21:36:14.474Z,6.35
2023-01-09T21:38:42.261Z,6.33
2023-01-09T21:41:27.352Z,6.33
2023-01-09T21:44:12.341Z,6.33
2023-01-09T21:46:51.997Z,6.31
2023-01-09T21:49:20.831Z,6.34
2023-01-09T21:51:47.780Z,6.34
2023-01-09T21:54:14.620Z,6.31
2023-01-09T21:56:41.417Z,6.30
2023-01-09T21:59:08.376Z,6.32
2023-01-09T22:01:34.993Z,6.31
2023-01-09T22:04:01.682Z,6.31
2023-01-09T22:06:29.358Z,6.29
2023-01-09T22:08:56.339Z,6.29
2023-01-09T22:11:23.117Z,6.29
2023-01-09T22:13:50.983Z,6.32
2023-01-09T22:16:18.399Z,6.34
2023-01-09T22:18:45.057Z,6.38
2023-01-09T22:21:11.971Z,6.39
2023-01-09T22:23:38.663Z,6.42
2023-01-09T22:26:10.282Z,6.43
2023-01-09T22:28:37.068Z,6.40
2023-01-09T22:31:08.435Z,6.41
2023-01-09T22:33:35.268Z,6.41
2023-01-09T22:36:08.765Z,6.43
2023-01-09T22:38:35.709Z,6.45
2023-01-09T22:41:02.874Z,6.48
2023-01-09T22:43:29.952Z,6.46
2023-01-09T22:46:01.490Z,6.46
2023-01-09T22:48:31.395Z,6.45
2023-01-09T22:51:00.663Z,6.45
2023-01-09T22:53:29.441Z,6.43
2023-01-09T22:55:58.175Z,6.41
2023-01-09T22:58:27.009Z,6.40
2023-01-09T23:00:54.099Z,6.42
2023-01-09T23:03:20.788Z,6.43
2023-01-09T23:05:47.399Z,6.44
2023-01-09T23:08:14.612Z,6.39
2023-01-09T23:10:41.930Z,6.36
2023-01-09T23:13:08.662Z,6.31
2023-01-09T23:15:35.373Z,6.30
2023-01-09T23:18:01.988Z,6.25
2023-01-09T23:20:28.634Z,6.21
2023-01-09T23:22:56.260Z,6.20
2023-01-09T23:25:23.832Z,6.21
2023-01-09T23:27:50.540Z,6.21
2023-01-09T23:30:17.240Z,6.20
2023-01-09T23:32:44.875Z,6.19
2023-01-09T23:35:11.538Z,6.23
2023-01-09T23:37:38.411Z,6.22
2023-01-09T23:40:05.582Z,6.22
2023-01-09T23:42:50.677Z,6.25
2023-01-09T23:45:17.313Z,6.26
2023-01-09T23:47:43.946Z,6.24
2023-01-09T23:50:11.974Z,6.21
2023-01-09T23:52:38.607Z,6.20
2023-01-09T23:55:05.816Z,6.16
2023-01-09T23:57:32.457Z,6.11
2023-01-09T23:59:59.113Z,6.08
